createdAt,value
2023-03-23T15:58:21.283Z,17.34
2023-03-23T15:59:28.294Z,17.51
2023-03-23T16:00:21.288Z,17.58
2023-03-23T16:01:21.347Z,17.55
2023-03-23T16:02:29.343Z,17.55
2023-03-23T16:03:28.570Z,17.40
2023-03-23T16:04:21.249Z,17.36
2023-03-23T16:05:21.217Z,17.34
2023-03-23T16:06:24.977Z,17.33
2023-03-23T16:07:21.304Z,17.36
2023-03-23T16:08:21.204Z,17.34
2023-03-23T16:09:21.163Z,17.26
2023-03-23T16:10:21.176Z,17.18
2023-03-23T16:11:21.132Z,17.16
2023-03-23T16:12:21.198Z,17.12
2023-03-23T16:13:21.136Z,17.11
2023-03-23T16:14:21.110Z,17.16
2023-03-23T16:15:21.129Z,17.22
2023-03-23T16:16:21.234Z,17.18
2023-03-23T16:17:21.447Z,17.06
2023-03-23T16:18:21.072Z,17.00
2023-03-23T16:19:21.053Z,16.98
2023-03-23T16:20:21.542Z,17.07
2023-03-23T16:21:21.092Z,17.14
2023-03-23T16:22:21.038Z,17.15
2023-03-23T16:23:21.012Z,17.21
2023-03-23T16:24:21.048Z,17.19
2023-03-23T16:25:22.861Z,17.15
2023-03-23T16:26:20.979Z,17.15
2023-03-23T16:27:20.984Z,17.16
2023-03-23T16:28:20.974Z,17.08
2023-03-23T16:29:40.165Z,16.96
2023-03-23T16:30:21.954Z,16.89
2023-03-23T16:31:20.967Z,16.91
2023-03-23T16:32:20.965Z,16.83
2023-03-23T16:33:21.000Z,16.78
2023-03-23T16:34:23.882Z,16.76
2023-03-23T16:35:21.235Z,16.71
2023-03-23T16:36:21.917Z,16.71
2023-03-23T16:37:20.887Z,16.68
2023-03-23T16:38:20.863Z,16.68
2023-03-23T16:39:20.847Z,16.70
2023-03-23T16:40:20.831Z,16.64
2023-03-23T16:41:20.814Z,16.61
2023-03-23T16:42:20.821Z,16.57
2023-03-23T16:43:20.790Z,16.53
2023-03-23T16:44:23.506Z,16.53
2023-03-23T16:45:20.871Z,16.52
2023-03-23T16:46:20.844Z,16.52
2023-03-23T16:47:20.741Z,16.49
2023-03-23T16:48:20.717Z,16.48
2023-03-23T16:49:20.998Z,16.43
2023-03-23T16:50:20.743Z,16.43
2023-03-23T16:51:20.761Z,16.42
2023-03-23T16:52:21.069Z,16.41
2023-03-23T16:53:20.678Z,16.33
2023-03-23T16:54:20.673Z,16.27
2023-03-23T16:55:20.656Z,16.25
2023-03-23T16:56:21.081Z,16.24
2023-03-23T16:57:22.388Z,16.15
2023-03-23T16:58:20.614Z,16.15
2023-03-23T16:59:20.940Z,16.14
2023-03-23T17:00:21.691Z,16.12
2023-03-23T17:01:20.625Z,16.08
2023-03-23T17:02:20.715Z,16.01
2023-03-23T17:03:20.696Z,16.01
2023-03-23T17:04:20.632Z,16.01
2023-03-23T17:05:20.625Z,15.97
2023-03-23T17:06:20.550Z,15.93
2023-03-23T17:07:20.551Z,15.90
2023-03-23T17:08:20.861Z,15.83
2023-03-23T17:09:20.552Z,15.78
2023-03-23T17:10:20.548Z,15.74
2023-03-23T17:11:20.922Z,15.71
2023-03-23T17:12:20.795Z,15.68
2023-03-23T17:13:23.403Z,15.64
2023-03-23T17:14:20.496Z,15.60
2023-03-23T17:15:23.224Z,15.59
2023-03-23T17:16:20.473Z,15.56
2023-03-23T17:17:20.778Z,15.54
2023-03-23T17:18:22.322Z,15.51
2023-03-23T17:19:20.709Z,15.47
2023-03-23T17:20:20.697Z,15.47
2023-03-23T17:21:20.436Z,15.43
2023-03-23T17:22:20.391Z,15.44
2023-03-23T17:23:23.193Z,15.44
2023-03-23T17:24:20.392Z,15.39
2023-03-23T17:25:20.379Z,15.38
2023-03-23T17:26:20.607Z,15.36
2023-03-23T17:27:20.319Z,15.35
2023-03-23T17:33:09.403Z,15.25
2023-03-23T17:34:08.993Z,15.25
2023-03-23T17:35:10.880Z,15.25
2023-03-23T17:36:11.059Z,15.23
2023-03-23T17:37:08.997Z,15.21
2023-03-23T17:38:08.959Z,15.21
2023-03-23T17:39:08.962Z,15.23
2023-03-23T17:40:08.943Z,15.20
2023-03-23T17:41:08.959Z,15.19
2023-03-23T17:42:08.946Z,15.19
2023-03-23T17:43:08.898Z,15.17
2023-03-23T17:44:09.060Z,15.14
2023-03-23T17:45:10.720Z,15.14
2023-03-23T17:46:09.301Z,15.11
2023-03-23T17:47:08.889Z,15.10
2023-03-23T17:48:15.900Z,15.06
2023-03-23T17:49:17.213Z,15.03
2023-03-23T17:50:18.455Z,15.01
2023-03-23T17:51:18.919Z,14.98
2023-03-23T17:52:17.644Z,14.95
2023-03-23T17:53:08.844Z,14.92
2023-03-23T17:54:08.808Z,14.91
2023-03-23T17:55:09.821Z,14.91
2023-03-23T17:56:08.810Z,14.92
2023-03-23T17:57:10.003Z,14.91
2023-03-23T17:58:08.751Z,14.92
2023-03-23T17:59:08.733Z,14.96
2023-03-23T18:00:09.018Z,14.96
2023-03-23T18:01:08.830Z,14.98
2023-03-23T18:02:08.769Z,14.95
2023-03-23T18:03:08.705Z,14.92
2023-03-23T18:04:08.824Z,14.91
2023-03-23T18:05:09.019Z,14.89
2023-03-23T18:06:08.655Z,14.88
2023-03-23T18:07:08.651Z,14.84
2023-03-23T18:08:09.165Z,14.83
2023-03-23T18:09:08.614Z,14.83
2023-03-23T18:10:11.413Z,14.83
2023-03-23T18:11:08.624Z,14.83
2023-03-23T18:12:08.593Z,14.83
2023-03-23T18:13:08.599Z,14.83
2023-03-23T18:14:08.548Z,14.83
2023-03-23T18:15:08.580Z,14.84
2023-03-23T18:16:08.819Z,14.84
2023-03-23T18:17:10.283Z,14.86
2023-03-23T18:18:08.514Z,14.86
2023-03-23T18:19:08.515Z,14.86
2023-03-23T18:20:08.529Z,14.88
2023-03-23T18:21:08.511Z,14.88
2023-03-23T18:22:09.494Z,14.86
2023-03-23T18:24:21.046Z,14.86
2023-03-23T18:25:21.019Z,14.84
2023-03-23T18:26:21.040Z,14.84
2023-03-23T18:27:21.056Z,14.86
2023-03-23T18:28:23.680Z,14.86
2023-03-23T18:29:20.940Z,14.86
2023-03-23T18:30:20.976Z,14.86
2023-03-23T18:31:21.443Z,14.86
2023-03-23T18:32:21.257Z,14.88
2023-03-23T18:33:20.970Z,14.86
2023-03-23T18:34:20.875Z,14.86
2023-03-23T18:35:20.941Z,14.84
2023-03-23T18:36:20.966Z,14.86
2023-03-23T18:37:20.843Z,14.84
2023-03-23T18:38:20.894Z,14.86
2023-03-23T18:39:20.837Z,14.86
2023-03-23T18:40:20.864Z,14.88
2023-03-23T18:41:20.849Z,14.88
2023-03-23T18:42:20.797Z,14.88
2023-03-23T18:43:23.567Z,14.86
2023-03-23T18:44:22.655Z,14.83
2023-03-23T18:45:20.821Z,14.84
2023-03-23T18:46:20.798Z,14.83
2023-03-23T18:47:20.744Z,14.81
2023-03-23T18:48:20.745Z,14.80
2023-03-23T18:49:21.004Z,14.80
2023-03-23T18:50:20.758Z,14.80
2023-03-23T18:51:20.966Z,14.78
2023-03-23T18:52:20.669Z,14.78
2023-03-23T18:53:22.398Z,14.80
2023-03-23T18:54:20.953Z,14.80
2023-03-23T18:55:21.704Z,14.83
2023-03-23T18:56:21.977Z,14.86
2023-03-23T18:57:21.928Z,14.86
2023-03-23T18:58:20.626Z,14.88
2023-03-23T18:59:20.588Z,14.88
2023-03-23T19:00:20.582Z,14.88
2023-03-23T19:01:20.617Z,14.86
2023-03-23T19:02:20.651Z,14.86
2023-03-23T19:03:20.951Z,14.84
2023-03-23T19:04:21.575Z,14.84
2023-03-23T19:05:20.536Z,14.84
2023-03-23T19:06:20.793Z,14.84
2023-03-23T19:07:20.566Z,14.83
2023-03-23T19:08:20.509Z,14.84
2023-03-23T19:09:20.514Z,14.83
2023-03-23T19:10:20.504Z,14.81
2023-03-23T19:11:20.454Z,14.81
2023-03-23T19:12:20.503Z,14.81
2023-03-23T19:13:20.437Z,14.78
2023-03-23T19:14:20.449Z,14.78
2023-03-23T19:15:20.530Z,14.77
2023-03-23T19:16:20.426Z,14.77
2023-03-23T19:17:20.410Z,14.78
2023-03-23T19:18:20.390Z,14.80
2023-03-23T19:19:20.499Z,14.78
2023-03-23T19:20:39.492Z,14.78
2023-03-23T19:21:25.729Z,14.78
2023-03-23T19:22:20.340Z,14.77
2023-03-23T19:23:20.313Z,14.75
2023-03-23T19:24:20.354Z,14.72
2023-03-23T19:25:21.012Z,14.70
2023-03-23T19:26:20.331Z,14.69
2023-03-23T19:27:21.031Z,14.65
2023-03-23T19:29:03.833Z,14.61
2023-03-23T19:31:45.745Z,14.55
2023-03-23T19:32:43.770Z,14.52
2023-03-23T19:33:43.628Z,14.52
2023-03-23T19:34:43.659Z,14.52
2023-03-23T19:36:53.791Z,14.51
2023-03-23T19:37:46.643Z,14.46
2023-03-23T19:38:55.183Z,14.45
2023-03-23T19:39:46.102Z,14.45
2023-03-23T19:40:45.819Z,14.43
2023-03-23T19:41:47.044Z,14.42
2023-03-23T19:42:45.525Z,14.40
2023-03-23T19:43:45.768Z,14.40
2023-03-23T19:44:46.290Z,14.37
2023-03-23T19:45:47.985Z,14.35
2023-03-23T19:46:45.359Z,14.35
2023-03-23T19:47:47.980Z,14.33
2023-03-23T19:48:46.607Z,14.29
2023-03-23T19:49:45.402Z,14.32
2023-03-23T19:50:49.318Z,14.32
2023-03-23T19:51:52.326Z,14.32
2023-03-23T19:52:46.174Z,14.32
2023-03-23T19:53:45.142Z,14.29
2023-03-23T19:54:46.085Z,14.29
2023-03-23T19:55:45.192Z,14.27
2023-03-23T19:56:45.462Z,14.29
2023-03-23T19:57:47.936Z,14.29
2023-03-23T19:58:45.411Z,14.29
2023-03-23T19:59:45.109Z,14.28
2023-03-23T20:00:45.839Z,14.28
2023-03-23T20:01:45.434Z,14.28
2023-03-23T20:02:45.496Z,14.28
2023-03-23T20:03:45.779Z,14.28
2023-03-23T20:04:46.043Z,14.27
2023-03-23T20:05:49.046Z,14.27
2023-03-23T20:06:46.203Z,14.27
2023-03-23T20:07:48.714Z,14.25
2023-03-23T20:08:46.372Z,14.24
2023-03-23T20:09:45.338Z,14.24
2023-03-23T20:10:44.954Z,14.22
2023-03-23T20:11:45.213Z,14.21
2023-03-23T20:12:45.517Z,14.20
2023-03-23T20:13:45.258Z,14.20
2023-03-23T20:14:45.611Z,14.20
2023-03-23T20:15:45.043Z,14.21
2023-03-23T20:16:46.615Z,14.20
2023-03-23T20:17:44.925Z,14.20
2023-03-23T20:18:46.770Z,14.18
2023-03-23T20:19:45.486Z,14.17
2023-03-23T20:20:44.908Z,14.14
2023-03-23T20:21:44.815Z,14.10
2023-03-23T20:23:55.297Z,14.09
2023-03-23T20:24:55.535Z,14.09
2023-03-23T20:25:56.638Z,14.10
2023-03-23T20:26:55.627Z,14.12
2023-03-23T20:27:55.145Z,14.15
2023-03-23T20:28:54.777Z,14.14
2023-03-23T20:29:55.369Z,14.15
2023-03-23T20:31:19.754Z,14.15
2023-03-23T20:31:55.725Z,14.15
2023-03-23T20:32:54.741Z,14.15
2023-03-23T20:34:00.182Z,14.15
2023-03-23T20:34:55.722Z,14.15
2023-03-23T20:35:54.730Z,14.14
2023-03-23T20:36:54.698Z,14.12
2023-03-23T20:37:54.656Z,14.10
2023-03-23T20:38:54.648Z,14.10
2023-03-23T20:39:54.655Z,14.09
2023-03-23T20:40:54.626Z,14.07
2023-03-23T20:41:54.693Z,14.06
2023-03-23T20:42:54.886Z,14.04
2023-03-23T20:43:54.605Z,14.06
2023-03-23T20:44:56.358Z,14.06
2023-03-23T20:45:54.564Z,14.06
2023-03-23T20:46:54.559Z,14.06
2023-03-23T20:47:54.627Z,14.06
2023-03-23T20:48:54.543Z,14.06
2023-03-23T20:49:54.549Z,14.04
2023-03-23T20:50:54.514Z,14.04
2023-03-23T20:51:54.502Z,14.04
2023-03-23T20:52:54.494Z,14.04
2023-03-23T20:53:54.476Z,14.04
2023-03-23T20:54:54.476Z,14.04
2023-03-23T20:55:54.692Z,14.07
2023-03-23T20:56:56.116Z,14.09
2023-03-23T20:57:54.469Z,14.09
2023-03-23T20:58:54.424Z,14.07
2023-03-23T20:59:54.414Z,14.07
2023-03-23T21:00:54.429Z,14.07
2023-03-23T21:01:54.405Z,14.09
2023-03-23T21:02:54.463Z,14.07
2023-03-23T21:03:54.418Z,14.07
2023-03-23T21:04:54.347Z,14.10
2023-03-23T21:05:54.647Z,14.10
2023-03-23T21:06:54.365Z,14.10
2023-03-23T21:07:54.336Z,14.10
2023-03-23T21:08:54.295Z,14.10
2023-03-23T21:09:54.298Z,14.10
2023-03-23T21:10:54.278Z,14.12
2023-03-23T21:11:54.270Z,14.14
2023-03-23T21:12:54.284Z,14.15
2023-03-23T21:13:54.274Z,14.17
2023-03-23T21:14:54.251Z,14.17
2023-03-23T21:15:54.254Z,14.20
2023-03-23T21:16:54.213Z,14.24
2023-03-23T21:17:54.306Z,14.27
2023-03-23T21:18:54.219Z,14.33
2023-03-23T21:19:54.165Z,14.36
2023-03-23T21:20:54.171Z,14.37
2023-03-23T21:21:56.398Z,14.42
2023-03-23T21:23:03.018Z,14.45
2023-03-23T21:24:04.926Z,14.46
2023-03-23T21:25:02.468Z,14.46
2023-03-23T21:26:01.482Z,14.51
2023-03-23T21:27:02.002Z,14.54
2023-03-23T21:28:02.439Z,14.57
2023-03-23T21:29:01.505Z,14.58
2023-03-23T21:29:54.044Z,14.60
2023-03-23T21:30:54.107Z,14.61
2023-03-23T21:32:08.314Z,14.61
2023-03-23T21:32:55.074Z,14.61
2023-03-23T21:33:54.001Z,14.64
2023-03-23T21:34:56.835Z,14.64
2023-03-23T21:35:54.168Z,14.65
2023-03-23T21:36:53.986Z,14.65
2023-03-23T21:37:53.956Z,14.65
2023-03-23T21:38:53.957Z,14.69
2023-03-23T21:39:53.974Z,14.69
2023-03-23T21:40:54.250Z,14.69
2023-03-23T21:41:53.950Z,14.70
2023-03-23T21:42:53.911Z,14.69
2023-03-23T21:43:53.894Z,14.69
2023-03-23T21:44:53.901Z,14.70
2023-03-23T21:45:53.887Z,14.70
2023-03-23T21:46:53.869Z,14.70
2023-03-23T21:47:53.905Z,14.72
2023-03-23T21:48:53.852Z,14.72
2023-03-23T21:49:53.827Z,14.73
2023-03-23T21:50:53.825Z,14.70
2023-03-23T21:51:53.800Z,14.70
2023-03-23T21:52:53.824Z,14.70
2023-03-23T21:53:53.758Z,14.72
2023-03-23T21:54:53.754Z,14.73
2023-03-23T21:55:53.756Z,14.73
2023-03-23T21:56:53.779Z,14.73
2023-03-23T21:57:53.737Z,14.72
2023-03-23T21:58:53.766Z,14.70
2023-03-23T21:59:53.700Z,14.72
2023-03-23T22:00:53.707Z,14.72
2023-03-23T22:01:53.744Z,14.69
2023-03-23T22:02:53.696Z,14.69
2023-03-23T22:03:53.676Z,14.65
2023-03-23T22:04:53.639Z,14.65
2023-03-23T22:05:53.649Z,14.65
2023-03-23T22:06:53.616Z,14.64
2023-03-23T22:07:53.608Z,14.62
2023-03-23T22:08:53.653Z,14.62
2023-03-23T22:09:53.576Z,14.62
2023-03-23T22:11:00.539Z,14.62
2023-03-23T22:11:54.570Z,14.62
2023-03-23T22:12:55.518Z,14.65
2023-03-23T22:13:53.546Z,14.64
2023-03-23T22:14:53.579Z,14.64
2023-03-23T22:15:53.529Z,14.64
2023-03-23T22:16:53.514Z,14.61
2023-03-23T22:17:53.551Z,14.60
2023-03-23T22:18:53.478Z,14.57
2023-03-23T22:19:53.452Z,14.57
2023-03-23T22:20:53.468Z,14.55
2023-03-23T22:21:53.437Z,14.55
2023-03-23T22:22:53.427Z,14.54
2023-03-23T22:23:53.463Z,14.52
2023-03-23T22:24:53.420Z,14.51
2023-03-23T22:25:53.383Z,14.52
2023-03-23T22:26:53.399Z,14.51
2023-03-23T22:27:53.370Z,14.52
2023-03-23T22:28:53.369Z,14.51
2023-03-23T22:29:53.356Z,14.51
2023-03-23T22:30:53.328Z,14.50
2023-03-23T22:31:53.376Z,14.47
2023-03-23T22:32:53.352Z,14.47
2023-03-23T22:33:53.524Z,14.50
2023-03-23T22:34:53.283Z,14.45
2023-03-23T22:35:53.389Z,14.46
2023-03-23T22:36:53.269Z,14.45
2023-03-23T22:37:53.263Z,14.45
2023-03-23T22:38:53.242Z,14.45
2023-03-23T22:39:53.237Z,14.45
2023-03-23T22:40:53.245Z,14.46
2023-03-23T22:41:53.210Z,14.45
2023-03-23T22:42:53.213Z,14.45
2023-03-23T22:43:53.264Z,14.45
2023-03-23T22:44:53.191Z,14.45
2023-03-23T22:45:53.204Z,14.43
2023-03-23T22:46:53.196Z,14.42
2023-03-23T22:47:53.180Z,14.39
2023-03-23T22:48:53.467Z,14.40
2023-03-23T22:49:53.136Z,14.40
2023-03-23T22:50:53.105Z,14.40
2023-03-23T22:51:53.096Z,14.40
2023-03-23T22:52:53.126Z,14.42
2023-03-23T22:53:53.098Z,14.42
2023-03-23T22:54:53.073Z,14.42
2023-03-23T22:55:53.090Z,14.40
2023-03-23T22:56:53.130Z,14.39
2023-03-23T22:57:54.915Z,14.40
2023-03-23T22:58:53.357Z,14.42
2023-03-23T22:59:53.005Z,14.40
2023-03-23T23:00:53.029Z,14.40
2023-03-23T23:01:53.046Z,14.42
2023-03-23T23:02:54.853Z,14.43
2023-03-23T23:03:54.818Z,14.42
2023-03-23T23:04:52.961Z,14.43
2023-03-23T23:05:53.209Z,14.43
2023-03-23T23:07:03.003Z,14.43
2023-03-23T23:07:53.907Z,14.45
2023-03-23T23:08:52.949Z,14.45
2023-03-23T23:09:52.890Z,14.46
2023-03-23T23:10:52.859Z,14.46
2023-03-23T23:12:01.720Z,14.46
2023-03-23T23:13:00.891Z,14.46
2023-03-23T23:13:59.888Z,14.43
2023-03-23T23:15:01.726Z,14.42
2023-03-23T23:15:52.868Z,14.43
2023-03-23T23:16:53.221Z,14.43
2023-03-23T23:17:52.837Z,14.40
2023-03-23T23:18:53.043Z,14.37
2023-03-23T23:19:55.528Z,14.37
2023-03-23T23:20:52.751Z,14.40
2023-03-23T23:21:52.771Z,14.39
2023-03-23T23:22:52.732Z,14.39
2023-03-23T23:23:52.730Z,14.37
2023-03-23T23:24:52.722Z,14.36
2023-03-23T23:25:52.700Z,14.36
2023-03-23T23:26:53.002Z,14.33
2023-03-23T23:27:54.527Z,14.35
2023-03-23T23:28:52.713Z,14.33
2023-03-23T23:29:52.959Z,14.32
2023-03-23T23:30:52.661Z,14.29
2023-03-23T23:31:55.460Z,14.29
2023-03-23T23:32:52.661Z,14.32
2023-03-23T23:33:52.603Z,14.32
2023-03-23T23:34:54.411Z,14.32
2023-03-23T23:35:52.904Z,14.32
2023-03-23T23:36:52.839Z,14.32
2023-03-23T23:37:52.573Z,14.32
2023-03-23T23:38:52.559Z,14.29
2023-03-23T23:39:52.546Z,14.29
2023-03-23T23:40:52.524Z,14.29
2023-03-23T23:41:52.522Z,14.32
2023-03-23T23:42:52.522Z,14.32
2023-03-23T23:43:52.486Z,14.33
2023-03-23T23:44:52.492Z,14.35
2023-03-23T23:45:52.504Z,14.35
2023-03-23T23:46:52.517Z,14.37
2023-03-23T23:47:52.458Z,14.37
2023-03-23T23:48:52.465Z,14.37
2023-03-23T23:49:52.690Z,14.39
2023-03-23T23:50:52.403Z,14.40
2023-03-23T23:51:52.435Z,14.42
2023-03-23T23:52:52.415Z,14.45
2023-03-23T23:53:52.387Z,14.46
2023-03-23T23:54:52.376Z,14.47
2023-03-23T23:55:52.397Z,14.47
2023-03-23T23:56:52.427Z,14.50
2023-03-23T23:57:52.320Z,14.50
2023-03-23T23:58:52.381Z,14.47
2023-03-23T23:59:52.587Z,14.47
